Snow/Ice From: 16-12-2017 16:00 Until: 17-12-2017 16:00 warning for: Snow/Ice Level: Yellow info button

Although rather usual in this region, locally or potentially dangerous phenomena are expected. (such as local winds, summer thunderstorms, rising streams or high waves) Be aware and pay attention to the latest weather updates, especially if you carry out activities exposed to weather or close to a stream or shoreline. 


Meteo18 Weather Cam more information Meteo18 Weather Cam


Thunder radar more information blitzortung!


warning for Snow/Ice more information rain snow radar


Visit our other weather sites:

Template documentation
and downloads

And another site



Weather Underground History page Text

Daily Summary for February 24, 2016 Units:  Metric    English   Both
« Previous Day
Next Day »
Daily Weekly Monthly Yearly Custom
  High: Low: Average:
Temperature: 5.2 °C 0.8 °C 3.5 °C
Dew Point: 4.7 °C 0.4 °C 3 °C
Humidity: 98 % 91 % 97 %
Wind Speed: 8.0 km/h 0.0 km/h 0.7 km/h
Wind Gust: 16.1 km/h - -
Wind:- - ESE
Pressure: 1020.9 hPa 1008.7 hPa -
Precipitation: 17.3 mm    
Historical Graphs
 
 
Tabular Data for February 24, 2016
Time Temperature Dew Point Pressure Wind Wind Speed Wind Gust Humidity Rainfall Rate (Hourly)
00:02 0.9 °C 0.5 °C 1020.9 hPa Calm     97 % 0.0 mm
00:07 0.8 °C 0.4 °C 1020.9 hPa Calm     97 % 0.0 mm
00:12 0.8 °C 0.4 °C 1020.5 hPa Calm     97 % 0.0 mm
00:17 0.9 °C 0.5 °C 1020.5 hPa Calm     97 % 0.0 mm
00:22 0.9 °C 0.5 °C 1020.5 hPa Calm     97 % 0.0 mm
00:32 1.2 °C 0.8 °C 1020.5 hPa Calm     97 % 0.0 mm
00:37 1.3 °C 0.9 °C 1020.5 hPa Calm     97 % 0.0 mm
00:42 1.3 °C 0.9 °C 1020.5 hPa Calm     97 % 0.0 mm
00:52 1.4 °C 1.0 °C 1020.5 hPa Calm     97 % 0.0 mm
00:57 1.4 °C 1.0 °C 1020.5 hPa Calm     97 % 0.0 mm
01:02 1.5 °C 1.1 °C 1020.5 hPa Calm     97 % 0.0 mm
01:07 1.6 °C 1.2 °C 1020.5 hPa Calm     97 % 0.0 mm
01:12 1.6 °C 1.2 °C 1020.5 hPa Calm     97 % 0.0 mm
01:17 1.6 °C 1.2 °C 1020.2 hPa Calm     97 % 0.0 mm
01:22 1.6 °C 1.2 °C 1020.5 hPa Calm     97 % 0.0 mm
01:27 1.7 °C 1.3 °C 1020.5 hPa Calm     97 % 0.0 mm
01:32 1.7 °C 1.3 °C 1020.2 hPa Calm     97 % 0.0 mm
01:37 1.7 °C 1.3 °C 1020.2 hPa Calm     97 % 0.0 mm
01:42 1.7 °C 1.3 °C 1020.2 hPa Calm     97 % 0.0 mm
01:47 1.7 °C 1.3 °C 1020.2 hPa Calm     97 % 0.0 mm
01:52 1.7 °C 1.3 °C 1020.2 hPa Calm     97 % 0.0 mm
01:57 1.7 °C 1.3 °C 1020.2 hPa Calm     97 % 0.0 mm
02:02 1.8 °C 1.4 °C 1020.2 hPa Calm     97 % 0.0 mm
02:07 1.8 °C 1.4 °C 1020.2 hPa Calm     97 % 0.0 mm
02:12 1.8 °C 1.4 °C 1020.2 hPa Calm     97 % 0.0 mm
02:17 1.9 °C 1.5 °C 1020.2 hPa Calm     97 % 0.0 mm
02:22 1.8 °C 1.4 °C 1020.2 hPa Calm     97 % 0.0 mm
02:27 1.8 °C 1.4 °C 1020.2 hPa Calm     97 % 0.0 mm
02:32 1.8 °C 1.4 °C 1020.2 hPa Calm     97 % 0.0 mm
02:37 1.7 °C 1.3 °C 1019.9 hPa Calm     97 % 0.0 mm
02:42 1.7 °C 1.3 °C 1019.9 hPa Calm     97 % 0.0 mm
02:52 1.7 °C 1.3 °C 1019.9 hPa Calm     97 % 0.0 mm
02:57 1.7 °C 1.3 °C 1019.9 hPa Calm     97 % 0.0 mm
03:02 1.7 °C 1.3 °C 1019.9 hPa Calm     97 % 0.0 mm
03:07 1.8 °C 1.4 °C 1019.5 hPa Calm     97 % 0.0 mm
03:12 1.8 °C 1.4 °C 1019.5 hPa Calm     97 % 0.0 mm
03:17 1.8 °C 1.4 °C 1019.5 hPa Calm     97 % 0.0 mm
03:22 1.8 °C 1.5 °C 1019.5 hPa Calm     98 % 0.0 mm
03:27 1.9 °C 1.6 °C 1019.5 hPa Calm     98 % 0.0 mm
03:32 1.9 °C 1.6 °C 1019.2 hPa Calm     98 % 0.0 mm
03:37 1.9 °C 1.6 °C 1019.2 hPa Calm     98 % 0.0 mm
03:42 1.9 °C 1.6 °C 1018.8 hPa Calm     98 % 0.0 mm
03:47 1.9 °C 1.6 °C 1019.2 hPa Calm     98 % 0.0 mm
03:57 2.0 °C 1.7 °C 1018.8 hPa Calm     98 % 0.0 mm
04:02 2.0 °C 1.7 °C 1018.8 hPa Calm     98 % 0.0 mm
04:07 1.9 °C 1.5 °C 1018.8 hPa Calm     97 % 0.0 mm
04:12 1.9 °C 1.5 °C 1018.8 hPa Calm     97 % 0.0 mm
04:17 1.9 °C 1.5 °C 1018.8 hPa Calm     97 % 0.0 mm
04:22 1.9 °C 1.5 °C 1018.8 hPa Calm     97 % 0.0 mm
04:27 1.8 °C 1.4 °C 1018.5 hPa Calm     97 % 0.0 mm
04:32 1.8 °C 1.4 °C 1018.5 hPa Calm     97 % 0.0 mm
04:37 1.9 °C 1.5 °C 1018.5 hPa Calm     97 % 0.0 mm
04:42 1.9 °C 1.6 °C 1018.5 hPa Calm     98 % 0.0 mm
04:47 1.9 °C 1.6 °C 1018.5 hPa Calm     98 % 0.0 mm
04:52 1.9 °C 1.6 °C 1018.5 hPa Calm     98 % 0.0 mm
05:02 1.9 °C 1.6 °C 1018.5 hPa Calm     98 % 0.0 mm
05:07 1.9 °C 1.6 °C 1018.5 hPa Calm     98 % 0.0 mm
05:12 1.9 °C 1.6 °C 1018.5 hPa Calm     98 % 0.0 mm
05:17 1.9 °C 1.6 °C 1018.2 hPa Calm     98 % 0.0 mm
05:22 1.9 °C 1.6 °C 1018.2 hPa Calm     98 % 0.0 mm
05:32 1.9 °C 1.6 °C 1018.2 hPa Calm     98 % 0.0 mm
05:37 2.0 °C 1.7 °C 1018.2 hPa Calm     98 % 0.0 mm
05:42 1.9 °C 1.6 °C 1018.2 hPa Calm     98 % 0.0 mm
05:52 1.9 °C 1.6 °C 1018.2 hPa Calm     98 % 0.0 mm
05:57 1.9 °C 1.6 °C 1018.2 hPa Calm   1.6 km/h 98 % 0.0 mm
06:02 1.8 °C 1.5 °C 1018.2 hPa Calm   1.6 km/h 98 % 0.0 mm
06:12 1.8 °C 1.5 °C 1017.8 hPa Calm   1.6 km/h 98 % 0.0 mm
06:17 1.7 °C 1.4 °C 1017.8 hPa Calm     98 % 0.0 mm
06:22 1.7 °C 1.4 °C 1017.8 hPa Calm     98 % 0.0 mm
06:32 1.7 °C 1.4 °C 1017.8 hPa Calm     98 % 0.0 mm
06:37 1.7 °C 1.4 °C 1017.8 hPa Calm     98 % 0.0 mm
06:42 1.7 °C 1.4 °C 1017.5 hPa Calm     98 % 0.0 mm
06:57 1.8 °C 1.5 °C 1017.5 hPa Calm     98 % 0.0 mm
07:02 1.8 °C 1.5 °C 1017.5 hPa Calm     98 % 0.0 mm
07:12 1.8 °C 1.5 °C 1017.5 hPa Calm     98 % 0.0 mm
07:17 1.8 °C 1.5 °C 1017.5 hPa Calm     98 % 0.0 mm
07:32 1.9 °C 1.6 °C 1017.5 hPa Calm     98 % 0.0 mm
07:42 1.8 °C 1.5 °C 1017.2 hPa Calm     98 % 0.0 mm
07:47 1.8 °C 1.5 °C 1017.2 hPa Calm     98 % 0.0 mm
07:52 1.8 °C 1.5 °C 1017.2 hPa Calm     98 % 0.0 mm
07:57 1.8 °C 1.5 °C 1017.2 hPa Calm   1.6 km/h 98 % 0.0 mm
08:12 1.9 °C 1.6 °C 1017.2 hPa Calm   1.6 km/h 98 % 0.0 mm
08:17 2.0 °C 1.7 °C 1017.2 hPa Calm   1.6 km/h 98 % 0.0 mm
08:22 2.1 °C 1.8 °C 1017.2 hPa Calm   1.6 km/h 98 % 0.0 mm
08:27 2.2 °C 1.9 °C 1017.2 hPa Calm   1.6 km/h 98 % 0.0 mm
08:32 2.2 °C 1.9 °C 1017.2 hPa Calm   1.6 km/h 98 % 0.0 mm
08:37 2.3 °C 2.0 °C 1017.2 hPa Calm   1.6 km/h 98 % 0.0 mm
08:42 2.4 °C 2.1 °C 1017.2 hPa Calm   1.6 km/h 98 % 0.0 mm
08:52 2.6 °C 2.3 °C 1017.2 hPa Calm   1.6 km/h 98 % 0.0 mm
08:57 2.7 °C 2.4 °C 1017.2 hPa Calm   1.6 km/h 98 % 0.0 mm
09:02 2.9 °C 2.6 °C 1017.2 hPa Calm   1.6 km/h 98 % 0.0 mm
09:07 3.0 °C 2.7 °C 1017.2 hPa Calm   1.6 km/h 98 % 0.0 mm
09:12 3.1 °C 2.8 °C 1017.2 hPa Calm   1.6 km/h 98 % 0.0 mm
09:17 3.2 °C 2.9 °C 1017.2 hPa Calm   1.6 km/h 98 % 0.0 mm
09:22 3.2 °C 2.9 °C 1017.2 hPa Calm   1.6 km/h 98 % 0.0 mm
09:27 3.3 °C 3.0 °C 1016.8 hPa Calm   1.6 km/h 98 % 0.0 mm
09:32 3.3 °C 3.0 °C 1016.8 hPa SE 1.6 km/h 1.6 km/h 98 % 0.0 mm
09:42 3.5 °C 3.2 °C 1016.8 hPa Calm   1.6 km/h 98 % 0.0 mm
09:52 3.6 °C 3.2 °C 1016.5 hPa Calm   1.6 km/h 97 % 0.0 mm
09:57 3.7 °C 3.3 °C 1016.5 hPa Calm   3.2 km/h 97 % 0.0 mm
10:02 3.9 °C 3.5 °C 1016.5 hPa Calm   3.2 km/h 97 % 0.0 mm
10:12 4.2 °C 3.6 °C 1016.5 hPa ESE 1.6 km/h 4.8 km/h 96 % 0.3 mm
10:17 4.2 °C 3.6 °C 1016.1 hPa Calm   3.2 km/h 96 % 0.3 mm
10:22 4.4 °C 3.7 °C 1016.1 hPa ESE 1.6 km/h 3.2 km/h 95 % 0.3 mm
10:32 4.5 °C 3.6 °C 1016.1 hPa Calm   4.8 km/h 94 % 0.3 mm
10:37 4.6 °C 3.6 °C 1016.1 hPa NNW 4.8 km/h 8.0 km/h 93 % 0.3 mm
10:42 4.6 °C 3.6 °C 1015.8 hPa Calm   8.0 km/h 93 % 0.3 mm
10:47 4.5 °C 3.3 °C 1015.8 hPa East 1.6 km/h 8.0 km/h 92 % 0.3 mm
10:52 4.5 °C 3.2 °C 1015.8 hPa ESE 1.6 km/h 8.0 km/h 91 % 0.3 mm
10:57 4.4 °C 3.2 °C 1015.8 hPa Calm   6.4 km/h 92 % 0.3 mm
11:02 4.5 °C 3.5 °C 1015.8 hPa SE 1.6 km/h 6.4 km/h 93 % 0.3 mm
11:12 4.6 °C 3.6 °C 1015.5 hPa NNW 1.6 km/h 8.0 km/h 93 % 0.3 mm
11:17 4.7 °C 3.7 °C 1015.5 hPa Calm   6.4 km/h 93 % 0.3 mm
11:22 4.7 °C 3.7 °C 1015.5 hPa WNW 1.6 km/h 6.4 km/h 93 % 0.5 mm
11:27 4.9 °C 3.9 °C 1015.5 hPa Calm   6.4 km/h 93 % 0.5 mm
11:32 5.0 °C 4.0 °C 1015.5 hPa Calm   6.4 km/h 93 % 0.5 mm
11:37 5.1 °C 4.1 °C 1015.5 hPa NW 3.2 km/h 6.4 km/h 93 % 0.5 mm
11:42 5.1 °C 3.9 °C 1015.1 hPa NNW 1.6 km/h 6.4 km/h 92 % 0.5 mm
11:47 5.0 °C 4.0 °C 1015.1 hPa Calm   4.8 km/h 93 % 0.5 mm
11:57 5.1 °C 3.9 °C 1014.8 hPa NW 1.6 km/h 6.4 km/h 92 % 0.5 mm
12:02 4.9 °C 3.7 °C 1014.8 hPa SE 1.6 km/h 6.4 km/h 92 % 0.5 mm
12:07 5.1 °C 4.1 °C 1014.8 hPa NW 1.6 km/h 4.8 km/h 93 % 0.3 mm
12:12 5.1 °C 4.1 °C 1014.8 hPa Calm   4.8 km/h 93 % 0.5 mm
12:17 5.1 °C 3.9 °C 1014.8 hPa Calm   8.0 km/h 92 % 0.5 mm
12:22 5.1 °C 4.1 °C 1014.4 hPa Calm   8.0 km/h 93 % 0.5 mm
12:27 5.0 °C 4.0 °C 1014.4 hPa Calm   8.0 km/h 93 % 0.5 mm
12:32 5.0 °C 4.0 °C 1014.4 hPa West 1.6 km/h 6.4 km/h 93 % 0.3 mm
12:37 5.0 °C 4.0 °C 1014.4 hPa Calm   6.4 km/h 93 % 0.3 mm
12:42 5.1 °C 4.1 °C 1014.4 hPa Calm   6.4 km/h 93 % 0.5 mm
12:47 5.1 °C 4.1 °C 1014.1 hPa Calm   6.4 km/h 93 % 0.5 mm
12:52 5.1 °C 4.1 °C 1014.1 hPa SE 1.6 km/h 6.4 km/h 93 % 0.5 mm
12:57 5.1 °C 4.2 °C 1014.1 hPa SE 1.6 km/h 9.7 km/h 94 % 0.5 mm
13:02 5.0 °C 4.1 °C 1013.8 hPa Calm   9.7 km/h 94 % 0.5 mm
13:07 4.9 °C 4.0 °C 1013.8 hPa Calm   6.4 km/h 94 % 0.5 mm
13:12 5.0 °C 4.1 °C 1013.8 hPa Calm   6.4 km/h 94 % 0.5 mm
13:17 5.0 °C 4.1 °C 1013.8 hPa SE 1.6 km/h 3.2 km/h 94 % 0.5 mm
13:22 5.1 °C 4.2 °C 1013.8 hPa Calm   3.2 km/h 94 % 0.5 mm
13:32 5.1 °C 4.4 °C 1013.1 hPa Calm   3.2 km/h 95 % 0.5 mm
13:37 5.1 °C 4.4 °C 1013.1 hPa Calm   4.8 km/h 95 % 0.5 mm
13:42 5.1 °C 4.4 °C 1013.1 hPa Calm   4.8 km/h 95 % 0.5 mm
13:47 5.1 °C 4.4 °C 1012.8 hPa Calm   1.6 km/h 95 % 0.5 mm
13:57 5.1 °C 4.4 °C 1012.8 hPa Calm   3.2 km/h 95 % 0.5 mm
14:02 5.1 °C 4.4 °C 1012.8 hPa Calm   3.2 km/h 95 % 0.5 mm
14:07 5.1 °C 4.4 °C 1012.8 hPa Calm   3.2 km/h 95 % 0.8 mm
14:12 5.2 °C 4.5 °C 1012.8 hPa Calm   3.2 km/h 95 % 0.8 mm
14:17 5.1 °C 4.4 °C 1012.8 hPa ENE 1.6 km/h 3.2 km/h 95 % 0.8 mm
14:22 5.1 °C 4.4 °C 1012.4 hPa Calm   3.2 km/h 95 % 1.0 mm
14:32 5.1 °C 4.4 °C 1012.1 hPa Calm   3.2 km/h 95 % 0.8 mm
14:37 5.1 °C 4.4 °C 1012.1 hPa Calm   3.2 km/h 95 % 1.0 mm
14:42 5.1 °C 4.4 °C 1012.1 hPa Calm   3.2 km/h 95 % 0.8 mm
14:47 5.1 °C 4.5 °C 1012.1 hPa Calm   3.2 km/h 96 % 1.0 mm
14:57 5.0 °C 4.3 °C 1011.7 hPa Calm   3.2 km/h 95 % 1.0 mm
15:02 4.9 °C 4.2 °C 1011.7 hPa Calm   3.2 km/h 95 % 1.0 mm
15:07 4.9 °C 4.3 °C 1011.7 hPa Calm   3.2 km/h 96 % 1.5 mm
15:12 4.9 °C 4.3 °C 1011.4 hPa ESE 1.6 km/h 3.2 km/h 96 % 1.5 mm
15:17 4.9 °C 4.3 °C 1011.4 hPa Calm   4.8 km/h 96 % 1.5 mm
15:22 4.9 °C 4.3 °C 1011.4 hPa Calm   4.8 km/h 96 % 1.5 mm
15:27 5.0 °C 4.4 °C 1011.4 hPa Calm   3.2 km/h 96 % 1.8 mm
15:32 5.0 °C 4.4 °C 1011.4 hPa Calm   3.2 km/h 96 % 1.8 mm
15:37 5.0 °C 4.4 °C 1011.4 hPa Calm   3.2 km/h 96 % 2.0 mm
15:42 5.1 °C 4.5 °C 1011.1 hPa ESE 1.6 km/h 3.2 km/h 96 % 2.0 mm
15:47 5.1 °C 4.5 °C 1011.1 hPa Calm   1.6 km/h 96 % 2.0 mm
15:52 5.1 °C 4.5 °C 1011.1 hPa Calm   1.6 km/h 96 % 2.0 mm
15:57 5.2 °C 4.6 °C 1011.1 hPa Calm   1.6 km/h 96 % 1.8 mm
16:02 5.1 °C 4.5 °C 1011.1 hPa Calm   1.6 km/h 96 % 1.8 mm
16:07 5.0 °C 4.4 °C 1011.1 hPa Calm   3.2 km/h 96 % 1.5 mm
16:12 5.0 °C 4.4 °C 1011.1 hPa Calm   3.2 km/h 96 % 1.5 mm
16:17 5.1 °C 4.5 °C 1011.1 hPa Calm   3.2 km/h 96 % 1.5 mm
16:22 5.1 °C 4.5 °C 1011.1 hPa Calm   3.2 km/h 96 % 1.5 mm
16:32 5.0 °C 4.4 °C 1010.7 hPa Calm   1.6 km/h 96 % 1.5 mm
16:37 5.1 °C 4.7 °C 1010.7 hPa Calm   1.6 km/h 97 % 1.3 mm
16:42 5.1 °C 4.7 °C 1010.7 hPa Calm   1.6 km/h 97 % 1.0 mm
16:47 5.1 °C 4.7 °C 1010.4 hPa Calm   1.6 km/h 97 % 0.8 mm
16:52 5.1 °C 4.7 °C 1010.4 hPa Calm   1.6 km/h 97 % 1.0 mm
17:02 5.1 °C 4.7 °C 1010.0 hPa Calm   1.6 km/h 97 % 1.3 mm
17:07 5.0 °C 4.6 °C 1010.0 hPa Calm   1.6 km/h 97 % 1.5 mm
17:12 4.9 °C 4.5 °C 1010.0 hPa Calm   1.6 km/h 97 % 1.5 mm
17:17 4.9 °C 4.5 °C 1010.0 hPa Calm   3.2 km/h 97 % 1.5 mm
17:22 4.9 °C 4.5 °C 1010.0 hPa Calm   3.2 km/h 97 % 1.5 mm
17:27 4.9 °C 4.5 °C 1009.7 hPa Calm   3.2 km/h 97 % 1.5 mm
17:32 4.9 °C 4.5 °C 1009.7 hPa Calm   3.2 km/h 97 % 1.5 mm
17:37 4.9 °C 4.5 °C 1009.7 hPa Calm   3.2 km/h 97 % 1.8 mm
17:42 4.9 °C 4.5 °C 1009.7 hPa Calm   3.2 km/h 97 % 2.0 mm
17:47 4.9 °C 4.5 °C 1009.7 hPa Calm   3.2 km/h 97 % 2.0 mm
17:52 4.9 °C 4.5 °C 1009.4 hPa Calm   3.2 km/h 97 % 2.0 mm
18:02 4.9 °C 4.5 °C 1009.0 hPa ESE 4.8 km/h 4.8 km/h 97 % 2.0 mm
18:07 4.9 °C 4.5 °C 1009.0 hPa Calm   6.4 km/h 97 % 1.8 mm
18:12 4.9 °C 4.5 °C 1009.4 hPa Calm   6.4 km/h 97 % 1.5 mm
18:17 4.9 °C 4.5 °C 1009.0 hPa Calm   6.4 km/h 97 % 1.5 mm
18:22 4.9 °C 4.5 °C 1009.0 hPa Calm   1.6 km/h 97 % 1.5 mm
18:27 4.9 °C 4.5 °C 1009.0 hPa Calm   1.6 km/h 97 % 1.5 mm
18:32 4.9 °C 4.5 °C 1009.0 hPa Calm   4.8 km/h 97 % 1.5 mm
18:37 5.0 °C 4.6 °C 1009.0 hPa Calm   4.8 km/h 97 % 1.5 mm
18:42 5.0 °C 4.6 °C 1009.0 hPa Calm   4.8 km/h 97 % 1.5 mm
18:52 5.1 °C 4.7 °C 1009.0 hPa Calm   1.6 km/h 97 % 1.3 mm
18:57 5.1 °C 4.7 °C 1009.0 hPa Calm   1.6 km/h 97 % 1.5 mm
19:02 5.1 °C 4.7 °C 1009.0 hPa Calm   1.6 km/h 97 % 1.5 mm
19:07 5.1 °C 4.7 °C 1009.0 hPa Calm   1.6 km/h 97 % 1.5 mm
19:12 5.1 °C 4.7 °C 1009.0 hPa Calm   1.6 km/h 97 % 1.5 mm
19:17 5.1 °C 4.7 °C 1009.0 hPa Calm   1.6 km/h 97 % 1.5 mm
19:22 5.0 °C 4.6 °C 1009.0 hPa Calm   1.6 km/h 97 % 1.8 mm
19:27 5.0 °C 4.6 °C 1009.0 hPa Calm   6.4 km/h 97 % 2.0 mm
19:32 4.9 °C 4.5 °C 1009.0 hPa ENE 1.6 km/h 6.4 km/h 97 % 2.0 mm
19:37 4.9 °C 4.5 °C 1009.0 hPa East 3.2 km/h 9.7 km/h 97 % 2.3 mm
19:42 4.8 °C 4.4 °C 1009.4 hPa East 6.4 km/h 9.7 km/h 97 % 2.3 mm
19:47 4.8 °C 4.4 °C 1009.4 hPa NNE 4.8 km/h 11.3 km/h 97 % 2.3 mm
19:52 4.7 °C 4.3 °C 1009.0 hPa NNE 3.2 km/h 11.3 km/h 97 % 2.3 mm
19:57 4.6 °C 4.2 °C 1009.0 hPa ENE 1.6 km/h 9.7 km/h 97 % 2.0 mm
20:02 4.4 °C 4.0 °C 1009.0 hPa ESE 1.6 km/h 9.7 km/h 97 % 2.0 mm
20:07 4.3 °C 3.9 °C 1009.0 hPa ENE 1.6 km/h 9.7 km/h 97 % 2.0 mm
20:12 4.2 °C 3.8 °C 1009.0 hPa South 3.2 km/h 9.7 km/h 97 % 1.8 mm
20:17 4.2 °C 3.8 °C 1009.0 hPa ESE 1.6 km/h 11.3 km/h 97 % 1.5 mm
20:22 4.2 °C 3.8 °C 1009.0 hPa Calm   11.3 km/h 97 % 1.5 mm
20:27 4.1 °C 3.7 °C 1009.0 hPa East 1.6 km/h 9.7 km/h 97 % 1.3 mm
20:32 4.1 °C 3.7 °C 1009.0 hPa NNE 3.2 km/h 9.7 km/h 97 % 1.3 mm
20:37 4.1 °C 3.7 °C 1009.0 hPa Calm   8.0 km/h 97 % 0.8 mm
20:42 3.9 °C 3.5 °C 1009.0 hPa Calm   8.0 km/h 97 % 1.3 mm
20:47 3.9 °C 3.5 °C 1009.0 hPa East 1.6 km/h 12.9 km/h 97 % 1.5 mm
20:52 3.9 °C 3.5 °C 1009.0 hPa Calm   12.9 km/h 97 % 2.0 mm
20:57 3.8 °C 3.4 °C 1009.0 hPa Calm   9.7 km/h 97 % 2.3 mm
21:02 3.8 °C 3.4 °C 1008.7 hPa Calm   9.7 km/h 97 % 2.3 mm
21:07 3.8 °C 3.4 °C 1008.7 hPa Calm   4.8 km/h 97 % 3.0 mm
21:12 3.8 °C 3.4 °C 1008.7 hPa Calm   4.8 km/h 97 % 3.3 mm
21:17 3.8 °C 3.4 °C 1008.7 hPa Calm   1.6 km/h 97 % 3.3 mm
21:27 3.8 °C 3.4 °C 1008.7 hPa Calm   3.2 km/h 97 % 3.3 mm
21:32 3.8 °C 3.4 °C 1008.7 hPa NNE 3.2 km/h 3.2 km/h 97 % 3.3 mm
21:42 3.7 °C 3.3 °C 1008.7 hPa Calm   3.2 km/h 97 % 3.3 mm
21:47 3.7 °C 3.3 °C 1009.0 hPa NNE 1.6 km/h 3.2 km/h 97 % 2.8 mm
21:52 3.7 °C 3.4 °C 1009.0 hPa Calm   3.2 km/h 98 % 2.3 mm
21:57 3.7 °C 3.4 °C 1009.0 hPa NNE 4.8 km/h 4.8 km/h 98 % 2.0 mm
22:02 3.7 °C 3.4 °C 1009.0 hPa East 1.6 km/h 3.2 km/h 98 % 2.0 mm
22:12 3.7 °C 3.4 °C 1009.0 hPa NNE 8.0 km/h 8.0 km/h 98 % 1.5 mm
22:17 3.6 °C 3.2 °C 1009.0 hPa ENE 3.2 km/h 9.7 km/h 97 % 1.5 mm
22:22 3.6 °C 3.3 °C 1009.0 hPa NE 8.0 km/h 9.7 km/h 98 % 1.5 mm
22:32 3.6 °C 3.3 °C 1009.0 hPa Calm   9.7 km/h 98 % 1.5 mm
22:37 3.6 °C 3.3 °C 1009.4 hPa ENE 3.2 km/h 8.0 km/h 98 % 1.0 mm
22:42 3.6 °C 3.2 °C 1009.0 hPa ESE 3.2 km/h 8.0 km/h 97 % 1.3 mm
22:47 3.5 °C 3.1 °C 1009.0 hPa East 1.6 km/h 8.0 km/h 97 % 1.3 mm
22:52 3.5 °C 3.1 °C 1009.4 hPa NE 4.8 km/h 8.0 km/h 97 % 1.0 mm
22:57 3.4 °C 3.0 °C 1009.4 hPa NNE 4.8 km/h 9.7 km/h 97 % 1.3 mm
23:02 3.3 °C 2.9 °C 1009.4 hPa ENE 3.2 km/h 9.7 km/h 97 % 1.3 mm
23:07 3.3 °C 2.9 °C 1009.4 hPa ENE 3.2 km/h 11.3 km/h 97 % 1.0 mm
23:12 3.3 °C 2.9 °C 1009.4 hPa ENE 1.6 km/h 11.3 km/h 97 % 1.0 mm
23:17 3.2 °C 2.8 °C 1009.4 hPa North 4.8 km/h 11.3 km/h 97 % 0.8 mm
23:22 3.3 °C 2.9 °C 1009.4 hPa SSE 1.6 km/h 11.3 km/h 97 % 0.8 mm
23:27 3.3 °C 2.9 °C 1009.4 hPa ENE 4.8 km/h 9.7 km/h 97 % 0.5 mm
23:32 3.2 °C 2.8 °C 1009.4 hPa ESE 3.2 km/h 9.7 km/h 97 % 0.5 mm
23:37 3.2 °C 2.8 °C 1009.4 hPa ENE 4.8 km/h 11.3 km/h 97 % 0.5 mm
23:42 3.1 °C 2.7 °C 1009.4 hPa ENE 1.6 km/h 11.3 km/h 97 % 0.5 mm
23:47 3.1 °C 2.7 °C 1009.4 hPa ENE 4.8 km/h 11.3 km/h 97 % 0.5 mm
23:57 2.9 °C 2.5 °C 1009.4 hPa ENE 6.4 km/h 16.1 km/h 97 % 0.3 mm
Meteo18
Compliments of Weather Underground - 4 mb

Script developed by  Jim McMurry - jmcmurry@mwt.net Adapted for the template by  Wim van der Kuil - Leuven-Template.eu

You find our weather info also at:

European Weather Network

Weather Underground

Equipment we use:

Weather-station
Davis Vue

Weather-program
Meteohub

Weather-server
Raspberry PI 2 B+

Provider
1 and 1

Davis Vue

Meteohub

Raspberry PI 2 B+

1 and 1